sensor_id;sensor_type;location;lat;lon;timestamp;P1;durP1;ratioP1;P2;durP2;ratioP2
42864;SDS011;28511;42.680;23.252;2022-09-27T00:00:38;7.80;;;4.78;;
42864;SDS011;28511;42.680;23.252;2022-09-27T00:03:05;5.80;;;3.67;;
42864;SDS011;28511;42.680;23.252;2022-09-27T00:05:30;7.22;;;4.05;;
42864;SDS011;28511;42.680;23.252;2022-09-27T00:07:56;6.03;;;3.20;;
42864;SDS011;28511;42.680;23.252;2022-09-27T00:10:21;6.32;;;3.10;;
42864;SDS011;28511;42.680;23.252;2022-09-27T00:12:46;7.05;;;3.63;;
42864;SDS011;28511;42.680;23.252;2022-09-27T00:15:12;7.10;;;4.28;;
42864;SDS011;28511;42.680;23.252;2022-09-27T00:17:38;5.95;;;3.25;;
42864;SDS011;28511;42.680;23.252;2022-09-27T00:20:03;4.05;;;2.67;;
42864;SDS011;28511;42.680;23.252;2022-09-27T00:22:29;6.70;;;3.95;;
42864;SDS011;28511;42.680;23.252;2022-09-27T00:24:55;7.75;;;3.75;;
42864;SDS011;28511;42.680;23.252;2022-09-27T00:27:20;5.90;;;3.15;;
42864;SDS011;28511;42.680;23.252;2022-09-27T00:29:47;4.95;;;3.42;;
42864;SDS011;28511;42.680;23.252;2022-09-27T00:32:12;3.72;;;3.20;;
42864;SDS011;28511;42.680;23.252;2022-09-27T00:34:38;5.95;;;2.88;;
42864;SDS011;28511;42.680;23.252;2022-09-27T00:37:04;3.67;;;1.95;;
42864;SDS011;28511;42.680;23.252;2022-09-27T00:39:29;4.13;;;3.25;;
42864;SDS011;28511;42.680;23.252;2022-09-27T00:41:54;5.78;;;3.78;;
42864;SDS011;28511;42.680;23.252;2022-09-27T00:51:46;4.80;;;2.70;;
42864;SDS011;28511;42.680;23.252;2022-09-27T00:54:13;8.75;;;3.65;;
42864;SDS011;28511;42.680;23.252;2022-09-27T00:56:39;5.38;;;3.28;;
42864;SDS011;28511;42.680;23.252;2022-09-27T00:59:10;6.93;;;3.65;;
42864;SDS011;28511;42.680;23.252;2022-09-27T01:01:37;6.03;;;3.58;;
42864;SDS011;28511;42.680;23.252;2022-09-27T01:04:05;6.70;;;4.25;;
42864;SDS011;28511;42.680;23.252;2022-09-27T01:06:31;7.72;;;3.35;;
42864;SDS011;28511;42.680;23.252;2022-09-27T01:08:57;7.88;;;3.63;;
42864;SDS011;28511;42.680;23.252;2022-09-27T01:14:09;5.47;;;3.30;;
42864;SDS011;28511;42.680;23.252;2022-09-27T01:16:42;7.82;;;4.05;;
42864;SDS011;28511;42.680;23.252;2022-09-27T01:22:01;5.22;;;3.08;;
42864;SDS011;28511;42.680;23.252;2022-09-27T01:24:32;6.22;;;2.53;;
42864;SDS011;28511;42.680;23.252;2022-09-27T01:32:16;4.95;;;3.53;;
42864;SDS011;28511;42.680;23.252;2022-09-27T01:34:43;5.95;;;2.97;;
42864;SDS011;28511;42.680;23.252;2022-09-27T01:42:28;8.80;;;3.95;;
42864;SDS011;28511;42.680;23.252;2022-09-27T01:44:58;6.93;;;3.85;;
42864;SDS011;28511;42.680;23.252;2022-09-27T01:47:28;6.72;;;3.50;;
42864;SDS011;28511;42.680;23.252;2022-09-27T01:49:58;4.85;;;3.30;;
42864;SDS011;28511;42.680;23.252;2022-09-27T01:52:28;5.15;;;3.53;;
42864;SDS011;28511;42.680;23.252;2022-09-27T01:54:57;6.25;;;4.72;;
42864;SDS011;28511;42.680;23.252;2022-09-27T01:57:25;8.65;;;4.03;;
42864;SDS011;28511;42.680;23.252;2022-09-27T01:59:52;6.60;;;4.22;;
42864;SDS011;28511;42.680;23.252;2022-09-27T02:02:19;6.05;;;3.65;;
42864;SDS011;28511;42.680;23.252;2022-09-27T02:04:48;7.65;;;3.72;;
42864;SDS011;28511;42.680;23.252;2022-09-27T02:07:16;7.18;;;3.60;;
42864;SDS011;28511;42.680;23.252;2022-09-27T02:09:47;4.97;;;2.85;;
42864;SDS011;28511;42.680;23.252;2022-09-27T02:12:14;6.45;;;3.85;;
42864;SDS011;28511;42.680;23.252;2022-09-27T02:14:43;9.82;;;3.88;;
42864;SDS011;28511;42.680;23.252;2022-09-27T02:19:39;8.00;;;3.05;;
42864;SDS011;28511;42.680;23.252;2022-09-27T02:30:24;6.85;;;3.75;;
42864;SDS011;28511;42.680;23.252;2022-09-27T02:32:50;8.15;;;4.55;;
42864;SDS011;28511;42.680;23.252;2022-09-27T02:35:23;7.85;;;4.63;;
42864;SDS011;28511;42.680;23.252;2022-09-27T02:37:50;6.55;;;3.80;;
42864;SDS011;28511;42.680;23.252;2022-09-27T02:40:16;6.60;;;3.55;;
42864;SDS011;28511;42.680;23.252;2022-09-27T02:42:41;4.80;;;3.65;;
42864;SDS011;28511;42.680;23.252;2022-09-27T02:45:08;6.13;;;3.40;;
42864;SDS011;28511;42.680;23.252;2022-09-27T02:52:41;5.55;;;3.13;;
42864;SDS011;28511;42.680;23.252;2022-09-27T02:55:42;8.18;;;3.25;;
42864;SDS011;28511;42.680;23.252;2022-09-27T03:00:39;6.40;;;3.50;;
42864;SDS011;28511;42.680;23.252;2022-09-27T03:03:13;5.95;;;3.42;;
42864;SDS011;28511;42.680;23.252;2022-09-27T03:05:49;5.68;;;3.65;;
42864;SDS011;28511;42.680;23.252;2022-09-27T03:08:15;10.20;;;3.92;;
42864;SDS011;28511;42.680;23.252;2022-09-27T03:10:41;5.35;;;2.95;;
42864;SDS011;28511;42.680;23.252;2022-09-27T03:13:06;8.40;;;3.53;;
42864;SDS011;28511;42.680;23.252;2022-09-27T03:15:32;6.65;;;3.60;;
42864;SDS011;28511;42.680;23.252;2022-09-27T03:17:57;5.85;;;4.00;;
42864;SDS011;28511;42.680;23.252;2022-09-27T03:20:22;7.03;;;3.83;;
42864;SDS011;28511;42.680;23.252;2022-09-27T03:22:48;7.30;;;4.10;;
42864;SDS011;28511;42.680;23.252;2022-09-27T03:25:13;5.68;;;3.55;;
42864;SDS011;28511;42.680;23.252;2022-09-27T03:27:38;11.52;;;4.13;;
42864;SDS011;28511;42.680;23.252;2022-09-27T03:30:03;8.37;;;3.83;;
42864;SDS011;28511;42.680;23.252;2022-09-27T03:32:30;6.45;;;4.22;;
42864;SDS011;28511;42.680;23.252;2022-09-27T03:34:55;9.30;;;3.83;;
42864;SDS011;28511;42.680;23.252;2022-09-27T03:37:21;5.32;;;4.00;;
42864;SDS011;28511;42.680;23.252;2022-09-27T03:39:46;6.78;;;3.70;;
42864;SDS011;28511;42.680;23.252;2022-09-27T03:42:11;8.18;;;4.38;;
42864;SDS011;28511;42.680;23.252;2022-09-27T03:44:37;6.35;;;4.07;;
42864;SDS011;28511;42.680;23.252;2022-09-27T03:47:02;6.20;;;3.77;;
42864;SDS011;28511;42.680;23.252;2022-09-27T03:49:27;8.95;;;4.35;;
42864;SDS011;28511;42.680;23.252;2022-09-27T03:51:53;5.72;;;4.22;;
42864;SDS011;28511;42.680;23.252;2022-09-27T03:54:18;4.40;;;3.28;;
42864;SDS011;28511;42.680;23.252;2022-09-27T03:56:43;8.05;;;4.30;;
42864;SDS011;28511;42.680;23.252;2022-09-27T03:59:09;7.38;;;3.80;;
42864;SDS011;28511;42.680;23.252;2022-09-27T04:01:35;7.63;;;4.07;;
42864;SDS011;28511;42.680;23.252;2022-09-27T04:04:01;10.95;;;5.07;;
42864;SDS011;28511;42.680;23.252;2022-09-27T04:06:27;7.38;;;4.05;;
42864;SDS011;28511;42.680;23.252;2022-09-27T04:08:53;6.20;;;3.10;;
42864;SDS011;28511;42.680;23.252;2022-09-27T04:11:19;6.78;;;4.28;;
42864;SDS011;28511;42.680;23.252;2022-09-27T04:13:44;7.80;;;4.05;;
42864;SDS011;28511;42.680;23.252;2022-09-27T04:16:10;8.60;;;4.22;;
42864;SDS011;28511;42.680;23.252;2022-09-27T04:18:35;7.28;;;4.60;;
42864;SDS011;28511;42.680;23.252;2022-09-27T04:21:01;9.73;;;4.85;;
42864;SDS011;28511;42.680;23.252;2022-09-27T04:23:26;6.07;;;3.63;;
42864;SDS011;28511;42.680;23.252;2022-09-27T04:25:52;10.02;;;3.92;;
42864;SDS011;28511;42.680;23.252;2022-09-27T04:28:17;5.82;;;3.22;;
42864;SDS011;28511;42.680;23.252;2022-09-27T04:30:44;11.00;;;5.55;;
42864;SDS011;28511;42.680;23.252;2022-09-27T04:33:09;5.78;;;4.15;;
42864;SDS011;28511;42.680;23.252;2022-09-27T04:35:34;6.77;;;3.87;;
42864;SDS011;28511;42.680;23.252;2022-09-27T04:38:18;9.98;;;4.60;;
42864;SDS011;28511;42.680;23.252;2022-09-27T04:40:46;6.05;;;3.78;;
42864;SDS011;28511;42.680;23.252;2022-09-27T04:43:13;7.47;;;4.65;;
42864;SDS011;28511;42.680;23.252;2022-09-27T04:45:38;7.40;;;4.15;;
42864;SDS011;28511;42.680;23.252;2022-09-27T04:48:03;7.57;;;3.78;;
42864;SDS011;28511;42.680;23.252;2022-09-27T04:50:28;9.00;;;5.37;;
42864;SDS011;28511;42.680;23.252;2022-09-27T04:52:54;7.03;;;3.92;;
42864;SDS011;28511;42.680;23.252;2022-09-27T04:55:19;10.70;;;5.53;;
42864;SDS011;28511;42.680;23.252;2022-09-27T04:57:45;7.13;;;4.97;;
42864;SDS011;28511;42.680;23.252;2022-09-27T05:00:11;8.75;;;4.05;;
42864;SDS011;28511;42.680;23.252;2022-09-27T05:02:36;11.77;;;5.30;;
42864;SDS011;28511;42.680;23.252;2022-09-27T05:05:02;9.30;;;5.55;;
42864;SDS011;28511;42.680;23.252;2022-09-27T05:07:27;8.57;;;4.25;;
42864;SDS011;28511;42.680;23.252;2022-09-27T05:09:53;8.73;;;4.57;;
42864;SDS011;28511;42.680;23.252;2022-09-27T05:12:19;9.13;;;4.30;;
42864;SDS011;28511;42.680;23.252;2022-09-27T05:14:44;12.55;;;5.65;;
42864;SDS011;28511;42.680;23.252;2022-09-27T05:17:09;6.95;;;3.80;;
42864;SDS011;28511;42.680;23.252;2022-09-27T05:19:35;12.60;;;4.50;;
42864;SDS011;28511;42.680;23.252;2022-09-27T05:22:03;10.55;;;5.68;;
42864;SDS011;28511;42.680;23.252;2022-09-27T05:24:28;13.85;;;6.80;;
42864;SDS011;28511;42.680;23.252;2022-09-27T05:26:57;12.52;;;6.00;;
42864;SDS011;28511;42.680;23.252;2022-09-27T05:29:23;6.32;;;4.20;;
42864;SDS011;28511;42.680;23.252;2022-09-27T05:31:48;9.63;;;5.23;;
42864;SDS011;28511;42.680;23.252;2022-09-27T05:34:14;8.57;;;4.60;;
42864;SDS011;28511;42.680;23.252;2022-09-27T05:36:39;8.50;;;4.78;;
42864;SDS011;28511;42.680;23.252;2022-09-27T05:39:04;7.22;;;4.60;;
42864;SDS011;28511;42.680;23.252;2022-09-27T05:41:31;11.27;;;5.45;;
42864;SDS011;28511;42.680;23.252;2022-09-27T05:43:56;8.05;;;5.45;;
42864;SDS011;28511;42.680;23.252;2022-09-27T05:46:22;9.52;;;4.80;;
42864;SDS011;28511;42.680;23.252;2022-09-27T05:48:47;8.75;;;4.60;;
42864;SDS011;28511;42.680;23.252;2022-09-27T05:51:12;10.25;;;4.95;;
42864;SDS011;28511;42.680;23.252;2022-09-27T05:53:38;9.88;;;4.78;;
42864;SDS011;28511;42.680;23.252;2022-09-27T05:56:03;6.65;;;4.32;;
42864;SDS011;28511;42.680;23.252;2022-09-27T05:58:29;10.15;;;4.15;;
42864;SDS011;28511;42.680;23.252;2022-09-27T06:00:54;8.52;;;4.25;;
42864;SDS011;28511;42.680;23.252;2022-09-27T06:03:19;10.88;;;5.65;;
42864;SDS011;28511;42.680;23.252;2022-09-27T06:05:45;6.75;;;3.95;;
42864;SDS011;28511;42.680;23.252;2022-09-27T06:08:10;7.20;;;4.37;;
42864;SDS011;28511;42.680;23.252;2022-09-27T06:10:36;7.75;;;3.92;;
42864;SDS011;28511;42.680;23.252;2022-09-27T06:13:03;9.25;;;5.10;;
42864;SDS011;28511;42.680;23.252;2022-09-27T06:15:29;7.60;;;3.42;;
42864;SDS011;28511;42.680;23.252;2022-09-27T06:17:55;7.75;;;4.82;;
42864;SDS011;28511;42.680;23.252;2022-09-27T06:20:20;9.13;;;5.05;;
42864;SDS011;28511;42.680;23.252;2022-09-27T06:22:46;9.27;;;4.63;;
42864;SDS011;28511;42.680;23.252;2022-09-27T06:25:11;11.10;;;6.22;;
42864;SDS011;28511;42.680;23.252;2022-09-27T06:27:37;9.90;;;5.35;;
42864;SDS011;28511;42.680;23.252;2022-09-27T06:30:03;9.38;;;5.15;;
42864;SDS011;28511;42.680;23.252;2022-09-27T06:32:28;13.23;;;5.85;;
42864;SDS011;28511;42.680;23.252;2022-09-27T06:34:53;6.55;;;3.95;;
42864;SDS011;28511;42.680;23.252;2022-09-27T06:37:23;11.70;;;5.72;;
42864;SDS011;28511;42.680;23.252;2022-09-27T06:39:49;9.15;;;5.63;;
42864;SDS011;28511;42.680;23.252;2022-09-27T06:42:16;13.27;;;5.93;;
42864;SDS011;28511;42.680;23.252;2022-09-27T06:44:42;8.82;;;5.70;;
42864;SDS011;28511;42.680;23.252;2022-09-27T06:47:07;8.23;;;4.82;;
42864;SDS011;28511;42.680;23.252;2022-09-27T06:49:33;9.10;;;5.90;;
42864;SDS011;28511;42.680;23.252;2022-09-27T06:51:59;8.82;;;4.70;;
42864;SDS011;28511;42.680;23.252;2022-09-27T06:54:24;10.25;;;4.55;;
42864;SDS011;28511;42.680;23.252;2022-09-27T06:56:50;6.63;;;3.87;;
42864;SDS011;28511;42.680;23.252;2022-09-27T06:59:15;8.57;;;5.05;;
42864;SDS011;28511;42.680;23.252;2022-09-27T07:01:58;9.40;;;5.20;;
42864;SDS011;28511;42.680;23.252;2022-09-27T07:04:24;12.27;;;5.82;;
42864;SDS011;28511;42.680;23.252;2022-09-27T07:06:49;11.55;;;6.25;;
42864;SDS011;28511;42.680;23.252;2022-09-27T07:09:15;9.43;;;5.13;;
42864;SDS011;28511;42.680;23.252;2022-09-27T07:11:41;12.25;;;6.15;;
42864;SDS011;28511;42.680;23.252;2022-09-27T07:14:08;10.35;;;5.93;;
42864;SDS011;28511;42.680;23.252;2022-09-27T07:16:35;13.88;;;6.50;;
42864;SDS011;28511;42.680;23.252;2022-09-27T07:19:01;9.50;;;4.68;;
42864;SDS011;28511;42.680;23.252;2022-09-27T07:21:26;9.35;;;5.55;;
42864;SDS011;28511;42.680;23.252;2022-09-27T07:23:52;10.45;;;4.72;;
42864;SDS011;28511;42.680;23.252;2022-09-27T07:26:17;14.30;;;9.07;;
42864;SDS011;28511;42.680;23.252;2022-09-27T07:28:42;12.38;;;5.00;;
42864;SDS011;28511;42.680;23.252;2022-09-27T07:31:09;14.48;;;8.68;;
42864;SDS011;28511;42.680;23.252;2022-09-27T07:33:34;15.88;;;8.77;;
42864;SDS011;28511;42.680;23.252;2022-09-27T07:36:00;9.52;;;6.30;;
42864;SDS011;28511;42.680;23.252;2022-09-27T07:38:25;13.70;;;7.47;;
42864;SDS011;28511;42.680;23.252;2022-09-27T07:40:50;10.48;;;5.47;;
42864;SDS011;28511;42.680;23.252;2022-09-27T07:43:16;11.30;;;6.18;;
42864;SDS011;28511;42.680;23.252;2022-09-27T07:45:41;12.35;;;7.55;;
42864;SDS011;28511;42.680;23.252;2022-09-27T07:48:08;9.43;;;6.68;;
42864;SDS011;28511;42.680;23.252;2022-09-27T07:50:34;12.25;;;5.40;;
42864;SDS011;28511;42.680;23.252;2022-09-27T07:52:59;12.35;;;6.60;;
42864;SDS011;28511;42.680;23.252;2022-09-27T07:55:25;10.10;;;5.70;;
42864;SDS011;28511;42.680;23.252;2022-09-27T07:57:50;17.85;;;9.70;;
42864;SDS011;28511;42.680;23.252;2022-09-27T08:00:17;12.48;;;6.57;;
42864;SDS011;28511;42.680;23.252;2022-09-27T08:02:44;11.70;;;7.43;;
42864;SDS011;28511;42.680;23.252;2022-09-27T08:05:10;12.00;;;5.70;;
42864;SDS011;28511;42.680;23.252;2022-09-27T08:07:35;8.68;;;5.28;;
42864;SDS011;28511;42.680;23.252;2022-09-27T08:10:01;9.77;;;5.72;;
42864;SDS011;28511;42.680;23.252;2022-09-27T08:12:27;10.63;;;5.55;;
42864;SDS011;28511;42.680;23.252;2022-09-27T08:14:52;10.50;;;6.30;;
42864;SDS011;28511;42.680;23.252;2022-09-27T08:17:18;10.43;;;5.88;;
42864;SDS011;28511;42.680;23.252;2022-09-27T08:19:44;12.82;;;7.35;;
42864;SDS011;28511;42.680;23.252;2022-09-27T08:22:12;8.65;;;5.95;;
42864;SDS011;28511;42.680;23.252;2022-09-27T08:24:38;12.13;;;7.28;;
42864;SDS011;28511;42.680;23.252;2022-09-27T08:27:04;10.40;;;6.50;;
42864;SDS011;28511;42.680;23.252;2022-09-27T08:29:32;12.95;;;7.68;;
42864;SDS011;28511;42.680;23.252;2022-09-27T08:31:57;13.55;;;6.50;;
42864;SDS011;28511;42.680;23.252;2022-09-27T08:34:23;17.33;;;10.75;;
42864;SDS011;28511;42.680;23.252;2022-09-27T08:36:48;17.88;;;9.25;;
42864;SDS011;28511;42.680;23.252;2022-09-27T08:39:13;15.57;;;8.93;;
42864;SDS011;28511;42.680;23.252;2022-09-27T08:44:19;10.73;;;6.13;;
42864;SDS011;28511;42.680;23.252;2022-09-27T08:46:56;12.93;;;6.00;;
42864;SDS011;28511;42.680;23.252;2022-09-27T08:49:25;12.30;;;5.40;;
42864;SDS011;28511;42.680;23.252;2022-09-27T08:54:27;11.00;;;4.80;;
42864;SDS011;28511;42.680;23.252;2022-09-27T08:56:59;9.90;;;5.20;;
42864;SDS011;28511;42.680;23.252;2022-09-27T08:59:27;6.95;;;4.05;;
42864;SDS011;28511;42.680;23.252;2022-09-27T09:01:54;8.88;;;4.68;;
42864;SDS011;28511;42.680;23.252;2022-09-27T09:04:24;10.05;;;4.25;;
42864;SDS011;28511;42.680;23.252;2022-09-27T09:07:01;9.25;;;4.55;;
42864;SDS011;28511;42.680;23.252;2022-09-27T09:35:34;12.07;;;6.67;;
42864;SDS011;28511;42.680;23.252;2022-09-27T09:38:20;11.75;;;6.00;;
42864;SDS011;28511;42.680;23.252;2022-09-27T09:40:52;12.93;;;6.40;;
42864;SDS011;28511;42.680;23.252;2022-09-27T09:43:32;9.23;;;5.88;;
42864;SDS011;28511;42.680;23.252;2022-09-27T09:46:10;10.68;;;5.75;;
42864;SDS011;28511;42.680;23.252;2022-09-27T09:48:44;14.98;;;8.38;;
42864;SDS011;28511;42.680;23.252;2022-09-27T09:51:15;13.07;;;6.68;;
42864;SDS011;28511;42.680;23.252;2022-09-27T09:53:46;11.95;;;5.95;;
42864;SDS011;28511;42.680;23.252;2022-09-27T09:58:45;13.77;;;7.27;;
42864;SDS011;28511;42.680;23.252;2022-09-27T10:01:46;10.13;;;5.45;;
42864;SDS011;28511;42.680;23.252;2022-09-27T10:04:05;13.13;;;7.43;;
42864;SDS011;28511;42.680;23.252;2022-09-27T10:06:30;20.02;;;11.00;;
42864;SDS011;28511;42.680;23.252;2022-09-27T10:08:56;16.30;;;9.55;;
42864;SDS011;28511;42.680;23.252;2022-09-27T10:11:23;15.30;;;8.38;;
42864;SDS011;28511;42.680;23.252;2022-09-27T10:13:49;18.75;;;7.30;;
42864;SDS011;28511;42.680;23.252;2022-09-27T10:16:15;15.90;;;7.15;;
42864;SDS011;28511;42.680;23.252;2022-09-27T10:18:41;12.10;;;6.85;;
42864;SDS011;28511;42.680;23.252;2022-09-27T10:21:10;13.25;;;6.78;;
42864;SDS011;28511;42.680;23.252;2022-09-27T10:23:36;8.73;;;4.78;;
42864;SDS011;28511;42.680;23.252;2022-09-27T10:26:22;9.35;;;5.50;;
42864;SDS011;28511;42.680;23.252;2022-09-27T10:28:48;9.52;;;5.18;;
42864;SDS011;28511;42.680;23.252;2022-09-27T10:31:16;11.85;;;5.47;;
42864;SDS011;28511;42.680;23.252;2022-09-27T10:33:56;7.93;;;4.97;;
42864;SDS011;28511;42.680;23.252;2022-09-27T10:38:53;15.60;;;5.83;;
42864;SDS011;28511;42.680;23.252;2022-09-27T10:41:35;9.23;;;5.53;;
42864;SDS011;28511;42.680;23.252;2022-09-27T10:46:48;7.97;;;4.78;;
42864;SDS011;28511;42.680;23.252;2022-09-27T10:51:48;6.05;;;3.75;;
42864;SDS011;28511;42.680;23.252;2022-09-27T10:54:24;7.47;;;3.92;;
42864;SDS011;28511;42.680;23.252;2022-09-27T10:57:04;11.93;;;4.97;;
42864;SDS011;28511;42.680;23.252;2022-09-27T10:59:33;6.32;;;4.57;;
42864;SDS011;28511;42.680;23.252;2022-09-27T11:02:00;10.35;;;4.63;;
42864;SDS011;28511;42.680;23.252;2022-09-27T11:04:30;7.88;;;4.55;;
42864;SDS011;28511;42.680;23.252;2022-09-27T11:07:06;6.40;;;3.78;;
42864;SDS011;28511;42.680;23.252;2022-09-27T11:09:31;6.25;;;3.67;;
42864;SDS011;28511;42.680;23.252;2022-09-27T11:12:09;5.35;;;3.60;;
42864;SDS011;28511;42.680;23.252;2022-09-27T11:14:36;5.65;;;3.35;;
42864;SDS011;28511;42.680;23.252;2022-09-27T11:17:16;5.18;;;3.45;;
42864;SDS011;28511;42.680;23.252;2022-09-27T11:25:36;6.70;;;3.72;;
42864;SDS011;28511;42.680;23.252;2022-09-27T11:30:53;7.28;;;3.13;;
42864;SDS011;28511;42.680;23.252;2022-09-27T11:46:13;7.32;;;3.78;;
42864;SDS011;28511;42.680;23.252;2022-09-27T11:57:05;6.80;;;3.78;;
42864;SDS011;28511;42.680;23.252;2022-09-27T12:02:24;4.93;;;2.30;;
42864;SDS011;28511;42.680;23.252;2022-09-27T12:07:29;3.50;;;1.92;;
42864;SDS011;28511;42.680;23.252;2022-09-27T12:09:56;4.68;;;1.70;;
42864;SDS011;28511;42.680;23.252;2022-09-27T12:12:25;4.35;;;2.40;;
42864;SDS011;28511;42.680;23.252;2022-09-27T12:14:53;4.15;;;1.98;;
42864;SDS011;28511;42.680;23.252;2022-09-27T12:17:22;2.85;;;1.88;;
42864;SDS011;28511;42.680;23.252;2022-09-27T12:19:50;3.42;;;1.90;;
42864;SDS011;28511;42.680;23.252;2022-09-27T12:22:18;3.70;;;1.60;;
42864;SDS011;28511;42.680;23.252;2022-09-27T12:24:45;2.47;;;1.35;;
42864;SDS011;28511;42.680;23.252;2022-09-27T12:27:15;2.17;;;1.40;;
42864;SDS011;28511;42.680;23.252;2022-09-27T12:29:42;2.22;;;1.60;;
42864;SDS011;28511;42.680;23.252;2022-09-27T12:32:21;2.85;;;1.52;;
42864;SDS011;28511;42.680;23.252;2022-09-27T12:37:26;2.45;;;1.55;;
42864;SDS011;28511;42.680;23.252;2022-09-27T12:42:49;2.15;;;1.17;;
42864;SDS011;28511;42.680;23.252;2022-09-27T12:45:18;2.30;;;1.50;;
42864;SDS011;28511;42.680;23.252;2022-09-27T12:47:51;2.55;;;1.65;;
42864;SDS011;28511;42.680;23.252;2022-09-27T12:52:49;1.87;;;1.77;;
42864;SDS011;28511;42.680;23.252;2022-09-27T13:00:34;2.10;;;1.75;;
42864;SDS011;28511;42.680;23.252;2022-09-27T13:13:18;3.33;;;1.70;;
42864;SDS011;28511;42.680;23.252;2022-09-27T13:15:45;4.25;;;1.50;;
42864;SDS011;28511;42.680;23.252;2022-09-27T13:18:30;3.20;;;1.83;;
42864;SDS011;28511;42.680;23.252;2022-09-27T13:20:56;1.67;;;1.33;;
42864;SDS011;28511;42.680;23.252;2022-09-27T13:30:53;2.03;;;1.30;;
42864;SDS011;28511;42.680;23.252;2022-09-27T13:33:20;1.80;;;1.50;;
42864;SDS011;28511;42.680;23.252;2022-09-27T13:36:05;1.95;;;1.48;;
42864;SDS011;28511;42.680;23.252;2022-09-27T13:38:30;2.42;;;1.25;;
42864;SDS011;28511;42.680;23.252;2022-09-27T13:41:11;1.27;;;1.17;;
42864;SDS011;28511;42.680;23.252;2022-09-27T13:51:43;1.13;;;1.00;;
42864;SDS011;28511;42.680;23.252;2022-09-27T13:56:55;0.75;;;0.70;;
42864;SDS011;28511;42.680;23.252;2022-09-27T13:59:36;2.63;;;1.13;;
42864;SDS011;28511;42.680;23.252;2022-09-27T14:04:46;1.20;;;0.98;;
42864;SDS011;28511;42.680;23.252;2022-09-27T14:07:14;1.30;;;1.17;;
42864;SDS011;28511;42.680;23.252;2022-09-27T14:09:42;1.35;;;1.10;;
42864;SDS011;28511;42.680;23.252;2022-09-27T14:12:14;1.05;;;0.80;;
42864;SDS011;28511;42.680;23.252;2022-09-27T14:14:40;0.80;;;0.80;;
42864;SDS011;28511;42.680;23.252;2022-09-27T14:17:07;1.02;;;0.80;;
42864;SDS011;28511;42.680;23.252;2022-09-27T14:19:37;1.83;;;1.20;;
42864;SDS011;28511;42.680;23.252;2022-09-27T14:22:02;1.25;;;1.20;;
42864;SDS011;28511;42.680;23.252;2022-09-27T14:24:42;1.92;;;1.02;;
42864;SDS011;28511;42.680;23.252;2022-09-27T14:27:20;3.83;;;1.23;;
42864;SDS011;28511;42.680;23.252;2022-09-27T14:32:13;3.47;;;1.20;;
42864;SDS011;28511;42.680;23.252;2022-09-27T14:34:39;1.65;;;1.45;;
42864;SDS011;28511;42.680;23.252;2022-09-27T14:37:04;1.50;;;1.02;;
42864;SDS011;28511;42.680;23.252;2022-09-27T14:39:58;1.42;;;1.33;;
42864;SDS011;28511;42.680;23.252;2022-09-27T14:42:25;1.27;;;1.15;;
42864;SDS011;28511;42.680;23.252;2022-09-27T14:44:50;1.30;;;1.20;;
42864;SDS011;28511;42.680;23.252;2022-09-27T14:47:23;4.43;;;1.50;;
42864;SDS011;28511;42.680;23.252;2022-09-27T14:52:19;2.28;;;1.30;;
42864;SDS011;28511;42.680;23.252;2022-09-27T14:54:53;1.33;;;1.10;;
42864;SDS011;28511;42.680;23.252;2022-09-27T14:57:19;1.77;;;1.15;;
42864;SDS011;28511;42.680;23.252;2022-09-27T14:59:44;3.17;;;1.40;;
42864;SDS011;28511;42.680;23.252;2022-09-27T15:02:14;2.53;;;1.60;;
42864;SDS011;28511;42.680;23.252;2022-09-27T15:04:42;0.93;;;0.82;;
42864;SDS011;28511;42.680;23.252;2022-09-27T15:07:10;3.13;;;1.52;;
42864;SDS011;28511;42.680;23.252;2022-09-27T15:09:35;1.38;;;0.65;;
42864;SDS011;28511;42.680;23.252;2022-09-27T15:12:02;0.20;;;0.20;;
42864;SDS011;28511;42.680;23.252;2022-09-27T15:14:29;0.30;;;0.30;;
42864;SDS011;28511;42.680;23.252;2022-09-27T15:16:57;0.93;;;0.88;;
42864;SDS011;28511;42.680;23.252;2022-09-27T15:19:28;0.28;;;0.28;;
42864;SDS011;28511;42.680;23.252;2022-09-27T15:21:53;0.30;;;0.30;;
42864;SDS011;28511;42.680;23.252;2022-09-27T15:27:04;0.20;;;0.20;;
42864;SDS011;28511;42.680;23.252;2022-09-27T15:29:30;1.77;;;1.65;;
42864;SDS011;28511;42.680;23.252;2022-09-27T15:31:59;0.20;;;0.20;;
42864;SDS011;28511;42.680;23.252;2022-09-27T15:34:26;0.20;;;0.20;;
42864;SDS011;28511;42.680;23.252;2022-09-27T15:36:54;0.35;;;0.35;;
42864;SDS011;28511;42.680;23.252;2022-09-27T15:43:22;0.52;;;0.52;;
42864;SDS011;28511;42.680;23.252;2022-09-27T15:45:53;0.60;;;0.60;;
42864;SDS011;28511;42.680;23.252;2022-09-27T15:48:19;0.20;;;0.20;;
42864;SDS011;28511;42.680;23.252;2022-09-27T15:50:45;3.45;;;0.75;;
42864;SDS011;28511;42.680;23.252;2022-09-27T15:53:11;0.20;;;0.20;;
42864;SDS011;28511;42.680;23.252;2022-09-27T15:55:40;0.63;;;0.63;;
42864;SDS011;28511;42.680;23.252;2022-09-27T15:58:10;1.30;;;1.20;;
42864;SDS011;28511;42.680;23.252;2022-09-27T16:00:39;1.10;;;0.80;;
42864;SDS011;28511;42.680;23.252;2022-09-27T16:03:14;0.55;;;0.52;;
42864;SDS011;28511;42.680;23.252;2022-09-27T16:05:39;1.27;;;1.20;;
42864;SDS011;28511;42.680;23.252;2022-09-27T16:08:06;0.47;;;0.47;;
42864;SDS011;28511;42.680;23.252;2022-09-27T16:10:36;0.32;;;0.32;;
42864;SDS011;28511;42.680;23.252;2022-09-27T16:13:02;0.17;;;0.17;;
42864;SDS011;28511;42.680;23.252;2022-09-27T16:15:27;0.43;;;0.43;;
42864;SDS011;28511;42.680;23.252;2022-09-27T16:17:53;0.55;;;0.55;;
42864;SDS011;28511;42.680;23.252;2022-09-27T16:20:20;0.40;;;0.40;;
42864;SDS011;28511;42.680;23.252;2022-09-27T16:22:47;0.38;;;0.38;;
42864;SDS011;28511;42.680;23.252;2022-09-27T16:25:12;6.05;;;1.15;;
42864;SDS011;28511;42.680;23.252;2022-09-27T16:27:38;0.40;;;0.40;;
42864;SDS011;28511;42.680;23.252;2022-09-27T16:30:03;0.85;;;0.55;;
42864;SDS011;28511;42.680;23.252;2022-09-27T16:32:28;0.45;;;0.45;;
42864;SDS011;28511;42.680;23.252;2022-09-27T16:34:55;0.40;;;0.40;;
42864;SDS011;28511;42.680;23.252;2022-09-27T16:37:21;0.43;;;0.32;;
42864;SDS011;28511;42.680;23.252;2022-09-27T16:39:46;0.25;;;0.25;;
42864;SDS011;28511;42.680;23.252;2022-09-27T16:42:12;0.40;;;0.40;;
42864;SDS011;28511;42.680;23.252;2022-09-27T16:44:38;0.70;;;0.65;;
42864;SDS011;28511;42.680;23.252;2022-09-27T16:47:04;1.35;;;1.27;;
42864;SDS011;28511;42.680;23.252;2022-09-27T16:49:30;0.60;;;0.60;;
42864;SDS011;28511;42.680;23.252;2022-09-27T16:52:14;0.50;;;0.50;;
42864;SDS011;28511;42.680;23.252;2022-09-27T16:54:40;2.28;;;1.67;;
42864;SDS011;28511;42.680;23.252;2022-09-27T16:57:07;1.30;;;0.55;;
42864;SDS011;28511;42.680;23.252;2022-09-27T16:59:32;1.10;;;0.70;;
42864;SDS011;28511;42.680;23.252;2022-09-27T17:01:58;1.42;;;1.17;;
42864;SDS011;28511;42.680;23.252;2022-09-27T17:04:23;0.93;;;0.90;;
42864;SDS011;28511;42.680;23.252;2022-09-27T17:06:49;1.30;;;0.68;;
42864;SDS011;28511;42.680;23.252;2022-09-27T17:09:15;0.40;;;0.40;;
42864;SDS011;28511;42.680;23.252;2022-09-27T17:11:40;4.10;;;1.98;;
42864;SDS011;28511;42.680;23.252;2022-09-27T17:14:05;0.73;;;0.73;;
42864;SDS011;28511;42.680;23.252;2022-09-27T17:16:31;1.38;;;1.27;;
42864;SDS011;28511;42.680;23.252;2022-09-27T17:18:56;0.60;;;0.60;;
42864;SDS011;28511;42.680;23.252;2022-09-27T17:21:21;3.13;;;1.50;;
42864;SDS011;28511;42.680;23.252;2022-09-27T17:23:46;0.35;;;0.35;;
42864;SDS011;28511;42.680;23.252;2022-09-27T17:26:19;0.38;;;0.38;;
42864;SDS011;28511;42.680;23.252;2022-09-27T17:28:45;0.20;;;0.20;;